Havilah, CA

6:41 AM PST on January 20, 2017 (GMT -0800)
MDEMC1 | | Change Station
Active Advisory: Winter Weather Advisory

Elev 2361 ft 35.53 °N, 118.63 °W | Updated 23 minutes ago

Light Rain
Light Rain
40.0 °F
Feels Like 40.0 °F
N
2.0
Wind Variable Wind from SSE
Gusts 4.0 mph

Today
High -- | Low -- °F
--% Chance of Precip.
Yesterday
High -- | Low -- °F
Precip. -- in
Pressure 29.59 in
Visibility 10.0 miles
Clouds Scattered Clouds 2800 ft
Mostly Cloudy 3500 ft
Overcast 5500 ft
Dew Point 39.0 °F
Humidity 97%
Rainfall in
Snow Depth Not available.
7:01 AM 5:10 PM
Last Quarter, 44% visible
METAR KTSP 201435Z AUTO 36004KT 10SM -RA SCT028 BKN035 OVC055 03/01 A2959 RMK AO2
Pressure 29.59 in
Visibility 10.0 miles
Clouds Scattered Clouds 2800 ft
Mostly Cloudy 3500 ft
Overcast 5500 ft
Dew Point 39.0 °F
Humidity 97%
Rainfall in
Snow Depth Not available.
7:01 AM 5:10 PM
Last Quarter, 44% visible
METAR KTSP 201435Z AUTO 36004KT 10SM -RA SCT028 BKN035 OVC055 03/01 A2959 RMK AO2

Get Your Daily Forecast Email!

Thanks for signing up!

Be on the lookout for a verification email in your inbox.

You'll start receiving the daily forecast at 8 AM.

×

10-Day Weather Forecast

Almanac

Astronomy

Jan. 20, 2017 Rise Set
Actual Time
Civil Twilight
Nautical Twilight
Astronomical Twilight
Moon
Length of Visible Light
Length of Day
Tomorrow will be .
, % of the Moon is Illuminated

Today's Extremes

State Highs State Lows

Community

WunderPhotos

Upload Photos

1,962,540 photos uploaded!

WunderBlog® & News

Nearby

Air Quality

  Air Quality AQ Index Pollutant
Not available.

Snow Depth

Station Depth Elevation

Earthquake Activity

City Distance Mag. Time & Date
Minimum magnitude displayed is 2.5.

Coastal Water Temperatures

Place Temperature

Stations

Nearby Weather Stations

Station Location Temp. Windchill Dew Point Humidity Wind Precip. Elev Updated Type
                   

Watches & Warnings

Winter Weather Advisory
Issued: 2:48 AM PST Jan. 20, 2017 – National Weather Service

... Winter Weather Advisory remains in effect from 7 am this
morning to 4 am PST Saturday above 5000 feet...

* accumulations... 4 to 9 inches above 5000 feet.

* Locations... Frazier Park... Cuddy Valley... Alta Sierra and
Walker Pass.

* Hazard types... winter driving conditions.

* Impacts... the snowfall will create slick Road conditions.

* Winds... southwest 20 to 25 mph with gusts to around 45 mph.

Precautionary/preparedness actions...

A Winter Weather Advisory for snow means that periods of snow
will cause primarily travel difficulties. Be prepared for snow
covered roads and limited visibilities... and use caution while
driving.



Dudley